sensor_id;sensor_type;location;lat;lon;timestamp;P1;durP1;ratioP1;P2;durP2;ratioP2
41653;SDS011;68687;52.030;7.110;2023-05-02T00:00:54;56.28;;;31.52;;
41653;SDS011;68687;52.030;7.110;2023-05-02T00:03:19;57.22;;;32.72;;
41653;SDS011;68687;52.030;7.110;2023-05-02T00:05:45;56.85;;;31.92;;
41653;SDS011;68687;52.030;7.110;2023-05-02T00:08:10;53.78;;;31.17;;
41653;SDS011;68687;52.030;7.110;2023-05-02T00:10:36;56.15;;;32.70;;
41653;SDS011;68687;52.030;7.110;2023-05-02T00:13:01;64.75;;;35.97;;
41653;SDS011;68687;52.030;7.110;2023-05-02T00:15:27;59.15;;;33.40;;
41653;SDS011;68687;52.030;7.110;2023-05-02T00:17:52;61.30;;;32.78;;
41653;SDS011;68687;52.030;7.110;2023-05-02T00:20:21;53.58;;;32.63;;
41653;SDS011;68687;52.030;7.110;2023-05-02T00:22:46;56.80;;;34.95;;
41653;SDS011;68687;52.030;7.110;2023-05-02T00:25:11;56.13;;;33.30;;
41653;SDS011;68687;52.030;7.110;2023-05-02T00:27:40;55.17;;;33.33;;
41653;SDS011;68687;52.030;7.110;2023-05-02T00:30:06;58.83;;;34.10;;
41653;SDS011;68687;52.030;7.110;2023-05-02T00:32:32;62.40;;;34.25;;
41653;SDS011;68687;52.030;7.110;2023-05-02T00:34:57;63.30;;;35.88;;
41653;SDS011;68687;52.030;7.110;2023-05-02T00:37:24;64.25;;;37.28;;
41653;SDS011;68687;52.030;7.110;2023-05-02T00:39:51;68.25;;;36.80;;
41653;SDS011;68687;52.030;7.110;2023-05-02T00:42:22;62.15;;;35.40;;
41653;SDS011;68687;52.030;7.110;2023-05-02T00:44:48;66.10;;;35.35;;
41653;SDS011;68687;52.030;7.110;2023-05-02T00:47:14;64.90;;;35.60;;
41653;SDS011;68687;52.030;7.110;2023-05-02T00:49:39;59.45;;;34.53;;
41653;SDS011;68687;52.030;7.110;2023-05-02T00:52:05;60.38;;;34.53;;
41653;SDS011;68687;52.030;7.110;2023-05-02T00:54:31;62.53;;;35.05;;
41653;SDS011;68687;52.030;7.110;2023-05-02T00:56:57;59.58;;;34.45;;
41653;SDS011;68687;52.030;7.110;2023-05-02T00:59:22;61.15;;;34.05;;
41653;SDS011;68687;52.030;7.110;2023-05-02T01:04:40;59.60;;;33.38;;
41653;SDS011;68687;52.030;7.110;2023-05-02T01:13:20;63.17;;;31.60;;
41653;SDS011;68687;52.030;7.110;2023-05-02T01:15:51;57.92;;;30.27;;
41653;SDS011;68687;52.030;7.110;2023-05-02T01:18:20;56.55;;;29.98;;
41653;SDS011;68687;52.030;7.110;2023-05-02T01:20:52;59.60;;;31.33;;
41653;SDS011;68687;52.030;7.110;2023-05-02T01:26:14;57.38;;;31.27;;
41653;SDS011;68687;52.030;7.110;2023-05-02T01:31:37;52.80;;;29.45;;
41653;SDS011;68687;52.030;7.110;2023-05-02T01:34:05;51.80;;;29.27;;
41653;SDS011;68687;52.030;7.110;2023-05-02T01:36:46;51.35;;;27.88;;
41653;SDS011;68687;52.030;7.110;2023-05-02T01:39:21;55.80;;;28.27;;
41653;SDS011;68687;52.030;7.110;2023-05-02T01:41:49;46.45;;;25.40;;
41653;SDS011;68687;52.030;7.110;2023-05-02T01:44:17;44.30;;;25.80;;
41653;SDS011;68687;52.030;7.110;2023-05-02T01:46:45;55.53;;;27.10;;
41653;SDS011;68687;52.030;7.110;2023-05-02T01:49:15;49.83;;;26.05;;
41653;SDS011;68687;52.030;7.110;2023-05-02T01:51:47;42.55;;;23.95;;
41653;SDS011;68687;52.030;7.110;2023-05-02T01:54:14;42.95;;;23.23;;
41653;SDS011;68687;52.030;7.110;2023-05-02T01:56:47;48.40;;;24.40;;
41653;SDS011;68687;52.030;7.110;2023-05-02T01:59:17;43.10;;;23.42;;
41653;SDS011;68687;52.030;7.110;2023-05-02T02:01:44;43.33;;;23.50;;
41653;SDS011;68687;52.030;7.110;2023-05-02T02:04:14;43.58;;;22.35;;
41653;SDS011;68687;52.030;7.110;2023-05-02T02:06:41;47.63;;;23.58;;
41653;SDS011;68687;52.030;7.110;2023-05-02T02:09:10;45.53;;;22.90;;
41653;SDS011;68687;52.030;7.110;2023-05-02T02:11:36;41.50;;;20.80;;
41653;SDS011;68687;52.030;7.110;2023-05-02T02:14:16;38.45;;;20.75;;
41653;SDS011;68687;52.030;7.110;2023-05-02T02:16:47;41.67;;;20.30;;
41653;SDS011;68687;52.030;7.110;2023-05-02T02:19:14;41.00;;;21.52;;
41653;SDS011;68687;52.030;7.110;2023-05-02T02:21:43;34.92;;;19.40;;
41653;SDS011;68687;52.030;7.110;2023-05-02T02:24:12;32.95;;;18.85;;
41653;SDS011;68687;52.030;7.110;2023-05-02T02:26:39;37.58;;;19.60;;
41653;SDS011;68687;52.030;7.110;2023-05-02T02:29:05;36.85;;;19.83;;
41653;SDS011;68687;52.030;7.110;2023-05-02T02:31:34;38.40;;;19.48;;
41653;SDS011;68687;52.030;7.110;2023-05-02T02:34:00;38.13;;;20.17;;
41653;SDS011;68687;52.030;7.110;2023-05-02T02:39:03;38.90;;;19.15;;
41653;SDS011;68687;52.030;7.110;2023-05-02T02:47:41;36.97;;;20.45;;
41653;SDS011;68687;52.030;7.110;2023-05-02T02:50:15;36.85;;;19.25;;
41653;SDS011;68687;52.030;7.110;2023-05-02T02:53:06;33.17;;;18.88;;
41653;SDS011;68687;52.030;7.110;2023-05-02T03:01:23;31.50;;;18.00;;
41653;SDS011;68687;52.030;7.110;2023-05-02T03:03:54;29.08;;;18.23;;
41653;SDS011;68687;52.030;7.110;2023-05-02T03:06:24;36.70;;;17.50;;
41653;SDS011;68687;52.030;7.110;2023-05-02T03:08:53;32.92;;;16.27;;
41653;SDS011;68687;52.030;7.110;2023-05-02T03:11:25;30.17;;;17.63;;
41653;SDS011;68687;52.030;7.110;2023-05-02T03:13:50;28.55;;;15.93;;
41653;SDS011;68687;52.030;7.110;2023-05-02T03:16:35;30.52;;;16.33;;
41653;SDS011;68687;52.030;7.110;2023-05-02T03:19:05;29.55;;;16.05;;
41653;SDS011;68687;52.030;7.110;2023-05-02T03:21:34;34.85;;;17.52;;
41653;SDS011;68687;52.030;7.110;2023-05-02T03:24:00;35.70;;;17.05;;
41653;SDS011;68687;52.030;7.110;2023-05-02T03:26:27;33.70;;;17.45;;
41653;SDS011;68687;52.030;7.110;2023-05-02T03:28:59;30.27;;;17.23;;
41653;SDS011;68687;52.030;7.110;2023-05-02T03:31:24;26.15;;;15.25;;
41653;SDS011;68687;52.030;7.110;2023-05-02T03:33:50;26.20;;;15.15;;
41653;SDS011;68687;52.030;7.110;2023-05-02T03:36:15;24.23;;;13.98;;
41653;SDS011;68687;52.030;7.110;2023-05-02T03:38:41;24.33;;;13.88;;
41653;SDS011;68687;52.030;7.110;2023-05-02T03:41:06;14.18;;;10.00;;
41653;SDS011;68687;52.030;7.110;2023-05-02T03:43:32;14.90;;;7.90;;
41653;SDS011;68687;52.030;7.110;2023-05-02T03:46:02;14.20;;;8.30;;
41653;SDS011;68687;52.030;7.110;2023-05-02T03:48:30;11.30;;;7.00;;
41653;SDS011;68687;52.030;7.110;2023-05-02T03:50:58;11.93;;;7.10;;
41653;SDS011;68687;52.030;7.110;2023-05-02T03:53:24;9.95;;;6.95;;
41653;SDS011;68687;52.030;7.110;2023-05-02T03:55:50;8.77;;;5.78;;
41653;SDS011;68687;52.030;7.110;2023-05-02T03:58:21;9.02;;;6.35;;
41653;SDS011;68687;52.030;7.110;2023-05-02T04:00:47;11.65;;;6.63;;
41653;SDS011;68687;52.030;7.110;2023-05-02T04:03:12;11.77;;;7.28;;
41653;SDS011;68687;52.030;7.110;2023-05-02T04:05:38;10.18;;;6.82;;
41653;SDS011;68687;52.030;7.110;2023-05-02T04:08:06;9.40;;;7.53;;
41653;SDS011;68687;52.030;7.110;2023-05-02T04:10:31;12.70;;;6.45;;
41653;SDS011;68687;52.030;7.110;2023-05-02T04:12:56;8.77;;;6.15;;
41653;SDS011;68687;52.030;7.110;2023-05-02T04:15:22;11.15;;;7.28;;
41653;SDS011;68687;52.030;7.110;2023-05-02T04:17:47;10.63;;;6.10;;
41653;SDS011;68687;52.030;7.110;2023-05-02T04:20:12;10.13;;;6.55;;
41653;SDS011;68687;52.030;7.110;2023-05-02T04:22:38;10.02;;;5.38;;
41653;SDS011;68687;52.030;7.110;2023-05-02T04:25:06;9.60;;;6.60;;
41653;SDS011;68687;52.030;7.110;2023-05-02T04:27:32;10.93;;;6.45;;
41653;SDS011;68687;52.030;7.110;2023-05-02T04:29:57;7.45;;;5.25;;
41653;SDS011;68687;52.030;7.110;2023-05-02T04:32:22;8.27;;;4.60;;
41653;SDS011;68687;52.030;7.110;2023-05-02T04:34:48;8.10;;;4.57;;
41653;SDS011;68687;52.030;7.110;2023-05-02T04:37:14;11.55;;;4.78;;
41653;SDS011;68687;52.030;7.110;2023-05-02T04:39:39;6.75;;;4.43;;
41653;SDS011;68687;52.030;7.110;2023-05-02T04:42:11;5.63;;;4.45;;
41653;SDS011;68687;52.030;7.110;2023-05-02T04:44:39;5.40;;;4.22;;
41653;SDS011;68687;52.030;7.110;2023-05-02T04:47:05;8.70;;;4.28;;
41653;SDS011;68687;52.030;7.110;2023-05-02T04:49:30;13.25;;;4.50;;
41653;SDS011;68687;52.030;7.110;2023-05-02T04:51:56;7.68;;;4.25;;
41653;SDS011;68687;52.030;7.110;2023-05-02T04:54:21;10.25;;;4.63;;
41653;SDS011;68687;52.030;7.110;2023-05-02T04:56:47;6.68;;;4.82;;
41653;SDS011;68687;52.030;7.110;2023-05-02T04:59:12;9.18;;;4.70;;
41653;SDS011;68687;52.030;7.110;2023-05-02T05:01:37;11.57;;;4.80;;
41653;SDS011;68687;52.030;7.110;2023-05-02T05:04:03;6.30;;;4.90;;
41653;SDS011;68687;52.030;7.110;2023-05-02T05:06:28;10.35;;;5.00;;
41653;SDS011;68687;52.030;7.110;2023-05-02T05:08:56;10.95;;;6.00;;
41653;SDS011;68687;52.030;7.110;2023-05-02T05:11:22;9.93;;;4.88;;
41653;SDS011;68687;52.030;7.110;2023-05-02T05:13:47;9.13;;;5.15;;
41653;SDS011;68687;52.030;7.110;2023-05-02T05:16:18;11.35;;;5.70;;
41653;SDS011;68687;52.030;7.110;2023-05-02T05:18:44;8.40;;;4.55;;
41653;SDS011;68687;52.030;7.110;2023-05-02T05:21:15;7.90;;;5.13;;
41653;SDS011;68687;52.030;7.110;2023-05-02T05:23:40;11.40;;;5.38;;
41653;SDS011;68687;52.030;7.110;2023-05-02T05:26:14;11.00;;;5.63;;
41653;SDS011;68687;52.030;7.110;2023-05-02T05:28:40;10.15;;;4.57;;
41653;SDS011;68687;52.030;7.110;2023-05-02T05:31:07;11.73;;;5.03;;
41653;SDS011;68687;52.030;7.110;2023-05-02T05:33:34;11.00;;;5.18;;
41653;SDS011;68687;52.030;7.110;2023-05-02T05:36:05;12.63;;;5.38;;
41653;SDS011;68687;52.030;7.110;2023-05-02T05:38:37;11.50;;;5.53;;
41653;SDS011;68687;52.030;7.110;2023-05-02T05:41:03;9.35;;;5.20;;
41653;SDS011;68687;52.030;7.110;2023-05-02T05:43:29;8.25;;;5.18;;
41653;SDS011;68687;52.030;7.110;2023-05-02T05:45:55;6.07;;;5.47;;
41653;SDS011;68687;52.030;7.110;2023-05-02T05:48:24;8.75;;;5.95;;
41653;SDS011;68687;52.030;7.110;2023-05-02T05:50:52;6.50;;;5.57;;
41653;SDS011;68687;52.030;7.110;2023-05-02T05:53:18;5.65;;;5.03;;
41653;SDS011;68687;52.030;7.110;2023-05-02T05:55:44;8.50;;;4.90;;
41653;SDS011;68687;52.030;7.110;2023-05-02T05:58:10;8.15;;;5.32;;
41653;SDS011;68687;52.030;7.110;2023-05-02T06:00:36;11.15;;;6.03;;
41653;SDS011;68687;52.030;7.110;2023-05-02T06:03:02;12.55;;;6.10;;
41653;SDS011;68687;52.030;7.110;2023-05-02T06:05:28;15.30;;;6.72;;
41653;SDS011;68687;52.030;7.110;2023-05-02T06:07:57;14.05;;;7.43;;
41653;SDS011;68687;52.030;7.110;2023-05-02T06:10:25;16.40;;;7.78;;
41653;SDS011;68687;52.030;7.110;2023-05-02T06:12:57;11.48;;;7.68;;
41653;SDS011;68687;52.030;7.110;2023-05-02T06:15:23;17.88;;;7.15;;
41653;SDS011;68687;52.030;7.110;2023-05-02T06:18:00;13.57;;;7.47;;
41653;SDS011;68687;52.030;7.110;2023-05-02T06:20:25;16.45;;;7.32;;
41653;SDS011;68687;52.030;7.110;2023-05-02T06:22:53;13.70;;;7.10;;
41653;SDS011;68687;52.030;7.110;2023-05-02T06:25:19;19.27;;;7.85;;
41653;SDS011;68687;52.030;7.110;2023-05-02T06:27:44;20.25;;;7.57;;
41653;SDS011;68687;52.030;7.110;2023-05-02T06:30:10;17.55;;;7.50;;
41653;SDS011;68687;52.030;7.110;2023-05-02T06:32:35;16.85;;;7.65;;
41653;SDS011;68687;52.030;7.110;2023-05-02T06:35:01;20.50;;;8.40;;
41653;SDS011;68687;52.030;7.110;2023-05-02T06:37:32;36.20;;;9.27;;
41653;SDS011;68687;52.030;7.110;2023-05-02T06:39:59;29.88;;;9.63;;
41653;SDS011;68687;52.030;7.110;2023-05-02T06:42:28;23.80;;;9.23;;
41653;SDS011;68687;52.030;7.110;2023-05-02T06:44:53;27.95;;;8.98;;
41653;SDS011;68687;52.030;7.110;2023-05-02T06:47:18;27.67;;;8.85;;
41653;SDS011;68687;52.030;7.110;2023-05-02T06:49:44;27.83;;;9.00;;
41653;SDS011;68687;52.030;7.110;2023-05-02T06:52:12;33.60;;;9.95;;
41653;SDS011;68687;52.030;7.110;2023-05-02T06:54:37;24.00;;;9.30;;
41653;SDS011;68687;52.030;7.110;2023-05-02T06:57:06;30.08;;;9.32;;
41653;SDS011;68687;52.030;7.110;2023-05-02T06:59:34;25.73;;;9.63;;
41653;SDS011;68687;52.030;7.110;2023-05-02T07:02:06;17.85;;;7.75;;
41653;SDS011;68687;52.030;7.110;2023-05-02T07:04:32;26.55;;;9.35;;
41653;SDS011;68687;52.030;7.110;2023-05-02T07:06:57;22.27;;;8.60;;
41653;SDS011;68687;52.030;7.110;2023-05-02T07:09:22;18.80;;;8.20;;
41653;SDS011;68687;52.030;7.110;2023-05-02T07:11:48;20.17;;;7.40;;
41653;SDS011;68687;52.030;7.110;2023-05-02T07:14:16;25.40;;;8.48;;
41653;SDS011;68687;52.030;7.110;2023-05-02T07:16:47;21.70;;;7.20;;
41653;SDS011;68687;52.030;7.110;2023-05-02T07:19:12;17.90;;;7.93;;
41653;SDS011;68687;52.030;7.110;2023-05-02T07:21:38;24.05;;;7.97;;
41653;SDS011;68687;52.030;7.110;2023-05-02T07:24:03;30.10;;;8.18;;
41653;SDS011;68687;52.030;7.110;2023-05-02T07:26:29;31.65;;;9.13;;
41653;SDS011;68687;52.030;7.110;2023-05-02T07:29:00;21.73;;;7.70;;
41653;SDS011;68687;52.030;7.110;2023-05-02T07:31:29;17.73;;;8.40;;
41653;SDS011;68687;52.030;7.110;2023-05-02T07:34:03;23.05;;;7.25;;
41653;SDS011;68687;52.030;7.110;2023-05-02T07:36:29;21.38;;;7.35;;
41653;SDS011;68687;52.030;7.110;2023-05-02T07:38:55;16.23;;;6.65;;
41653;SDS011;68687;52.030;7.110;2023-05-02T07:41:20;20.48;;;6.28;;
41653;SDS011;68687;52.030;7.110;2023-05-02T07:43:46;24.83;;;6.65;;
41653;SDS011;68687;52.030;7.110;2023-05-02T07:46:14;27.45;;;7.22;;
41653;SDS011;68687;52.030;7.110;2023-05-02T07:48:49;19.67;;;6.10;;
41653;SDS011;68687;52.030;7.110;2023-05-02T07:51:14;13.20;;;5.75;;
41653;SDS011;68687;52.030;7.110;2023-05-02T07:53:40;18.85;;;6.90;;
41653;SDS011;68687;52.030;7.110;2023-05-02T07:56:06;17.90;;;6.68;;
41653;SDS011;68687;52.030;7.110;2023-05-02T07:58:33;18.15;;;6.50;;
41653;SDS011;68687;52.030;7.110;2023-05-02T08:01:03;13.48;;;5.90;;
41653;SDS011;68687;52.030;7.110;2023-05-02T08:03:29;20.67;;;7.38;;
41653;SDS011;68687;52.030;7.110;2023-05-02T08:05:55;16.42;;;6.43;;
41653;SDS011;68687;52.030;7.110;2023-05-02T08:08:20;12.63;;;5.75;;
41653;SDS011;68687;52.030;7.110;2023-05-02T08:10:46;22.00;;;5.80;;
41653;SDS011;68687;52.030;7.110;2023-05-02T08:13:14;21.08;;;6.68;;
41653;SDS011;68687;52.030;7.110;2023-05-02T08:15:39;9.52;;;5.80;;
41653;SDS011;68687;52.030;7.110;2023-05-02T08:18:14;15.07;;;5.05;;
41653;SDS011;68687;52.030;7.110;2023-05-02T08:20:39;16.90;;;6.05;;
41653;SDS011;68687;52.030;7.110;2023-05-02T08:23:04;16.92;;;6.65;;
41653;SDS011;68687;52.030;7.110;2023-05-02T08:25:33;18.35;;;6.32;;
41653;SDS011;68687;52.030;7.110;2023-05-02T08:28:01;18.48;;;6.07;;
41653;SDS011;68687;52.030;7.110;2023-05-02T08:30:30;15.38;;;6.07;;
41653;SDS011;68687;52.030;7.110;2023-05-02T08:32:55;7.82;;;4.70;;
41653;SDS011;68687;52.030;7.110;2023-05-02T08:35:20;9.25;;;5.05;;
41653;SDS011;68687;52.030;7.110;2023-05-02T08:37:45;7.35;;;4.47;;
41653;SDS011;68687;52.030;7.110;2023-05-02T08:40:11;12.95;;;5.05;;
41653;SDS011;68687;52.030;7.110;2023-05-02T08:42:36;18.13;;;4.97;;
41653;SDS011;68687;52.030;7.110;2023-05-02T08:45:06;9.50;;;4.60;;
41653;SDS011;68687;52.030;7.110;2023-05-02T08:47:35;13.93;;;4.78;;
41653;SDS011;68687;52.030;7.110;2023-05-02T08:50:04;8.45;;;4.32;;
41653;SDS011;68687;52.030;7.110;2023-05-02T08:52:31;13.57;;;4.35;;
41653;SDS011;68687;52.030;7.110;2023-05-02T08:55:00;10.98;;;4.72;;
41653;SDS011;68687;52.030;7.110;2023-05-02T08:57:29;11.95;;;4.40;;
41653;SDS011;68687;52.030;7.110;2023-05-02T08:59:58;8.88;;;4.60;;
41653;SDS011;68687;52.030;7.110;2023-05-02T09:05:29;8.30;;;5.30;;
41653;SDS011;68687;52.030;7.110;2023-05-02T09:08:03;7.45;;;4.47;;
41653;SDS011;68687;52.030;7.110;2023-05-02T09:10:33;7.13;;;4.43;;
41653;SDS011;68687;52.030;7.110;2023-05-02T09:16:16;8.93;;;4.88;;
41653;SDS011;68687;52.030;7.110;2023-05-02T09:18:47;8.68;;;5.07;;
41653;SDS011;68687;52.030;7.110;2023-05-02T09:21:20;10.93;;;4.70;;
41653;SDS011;68687;52.030;7.110;2023-05-02T09:24:13;9.32;;;5.20;;
41653;SDS011;68687;52.030;7.110;2023-05-02T09:26:41;12.88;;;4.85;;
41653;SDS011;68687;52.030;7.110;2023-05-02T09:29:07;7.07;;;4.40;;
41653;SDS011;68687;52.030;7.110;2023-05-02T09:31:33;7.15;;;4.32;;
41653;SDS011;68687;52.030;7.110;2023-05-02T09:34:09;8.23;;;4.60;;
41653;SDS011;68687;52.030;7.110;2023-05-02T09:36:39;16.58;;;5.25;;
41653;SDS011;68687;52.030;7.110;2023-05-02T09:39:09;12.32;;;4.70;;
41653;SDS011;68687;52.030;7.110;2023-05-02T09:41:40;8.07;;;4.55;;
41653;SDS011;68687;52.030;7.110;2023-05-02T09:44:08;7.82;;;4.28;;
41653;SDS011;68687;52.030;7.110;2023-05-02T09:46:38;6.93;;;4.53;;
41653;SDS011;68687;52.030;7.110;2023-05-02T09:49:07;11.07;;;4.72;;
41653;SDS011;68687;52.030;7.110;2023-05-02T09:51:35;10.75;;;4.68;;
41653;SDS011;68687;52.030;7.110;2023-05-02T09:54:04;7.88;;;4.30;;
41653;SDS011;68687;52.030;7.110;2023-05-02T09:56:50;8.95;;;4.38;;
41653;SDS011;68687;52.030;7.110;2023-05-02T09:59:17;17.67;;;5.68;;
41653;SDS011;68687;52.030;7.110;2023-05-02T10:01:42;10.90;;;5.43;;
41653;SDS011;68687;52.030;7.110;2023-05-02T10:04:11;8.88;;;5.18;;
41653;SDS011;68687;52.030;7.110;2023-05-02T10:06:45;12.15;;;5.47;;
41653;SDS011;68687;52.030;7.110;2023-05-02T10:09:15;18.33;;;6.82;;
41653;SDS011;68687;52.030;7.110;2023-05-02T10:11:43;12.63;;;5.78;;
41653;SDS011;68687;52.030;7.110;2023-05-02T10:14:09;10.32;;;5.03;;
41653;SDS011;68687;52.030;7.110;2023-05-02T10:16:42;11.80;;;5.72;;
41653;SDS011;68687;52.030;7.110;2023-05-02T10:19:18;11.90;;;5.57;;
41653;SDS011;68687;52.030;7.110;2023-05-02T10:21:48;11.88;;;6.43;;
41653;SDS011;68687;52.030;7.110;2023-05-02T10:24:14;12.48;;;5.68;;
41653;SDS011;68687;52.030;7.110;2023-05-02T10:26:40;14.15;;;5.25;;
41653;SDS011;68687;52.030;7.110;2023-05-02T10:29:06;9.07;;;4.95;;
41653;SDS011;68687;52.030;7.110;2023-05-02T10:31:35;13.13;;;5.07;;
41653;SDS011;68687;52.030;7.110;2023-05-02T10:34:03;9.25;;;5.70;;
41653;SDS011;68687;52.030;7.110;2023-05-02T10:36:31;9.55;;;5.93;;
41653;SDS011;68687;52.030;7.110;2023-05-02T10:38:57;18.63;;;6.32;;
41653;SDS011;68687;52.030;7.110;2023-05-02T10:41:24;11.45;;;5.50;;
41653;SDS011;68687;52.030;7.110;2023-05-02T10:43:51;18.20;;;5.90;;
41653;SDS011;68687;52.030;7.110;2023-05-02T10:48:59;11.90;;;5.10;;
41653;SDS011;68687;52.030;7.110;2023-05-02T10:51:26;13.73;;;5.63;;
41653;SDS011;68687;52.030;7.110;2023-05-02T10:59:26;19.17;;;6.53;;
41653;SDS011;68687;52.030;7.110;2023-05-02T11:05:06;14.13;;;6.20;;
41653;SDS011;68687;52.030;7.110;2023-05-02T11:07:32;12.23;;;6.20;;
41653;SDS011;68687;52.030;7.110;2023-05-02T11:12:50;19.77;;;6.95;;
41653;SDS011;68687;52.030;7.110;2023-05-02T11:18:00;19.02;;;6.65;;
41653;SDS011;68687;52.030;7.110;2023-05-02T11:20:27;13.95;;;6.35;;
41653;SDS011;68687;52.030;7.110;2023-05-02T11:22:53;11.13;;;6.55;;
41653;SDS011;68687;52.030;7.110;2023-05-02T11:27:58;19.83;;;6.30;;
41653;SDS011;68687;52.030;7.110;2023-05-02T11:30:40;26.98;;;6.40;;
41653;SDS011;68687;52.030;7.110;2023-05-02T11:35:34;19.05;;;6.28;;
41653;SDS011;68687;52.030;7.110;2023-05-02T11:40:29;23.17;;;7.13;;
41653;SDS011;68687;52.030;7.110;2023-05-02T11:42:56;14.40;;;5.80;;
41653;SDS011;68687;52.030;7.110;2023-05-02T11:45:31;12.40;;;6.63;;
41653;SDS011;68687;52.030;7.110;2023-05-02T11:47:58;13.27;;;7.10;;
41653;SDS011;68687;52.030;7.110;2023-05-02T11:50:23;14.88;;;8.00;;
41653;SDS011;68687;52.030;7.110;2023-05-02T11:52:50;22.23;;;7.65;;
41653;SDS011;68687;52.030;7.110;2023-05-02T11:55:21;11.93;;;6.07;;
41653;SDS011;68687;52.030;7.110;2023-05-02T11:57:47;17.90;;;7.38;;
41653;SDS011;68687;52.030;7.110;2023-05-02T12:00:16;18.88;;;7.38;;
41653;SDS011;68687;52.030;7.110;2023-05-02T12:02:42;17.98;;;6.72;;
41653;SDS011;68687;52.030;7.110;2023-05-02T12:05:10;18.77;;;6.47;;
41653;SDS011;68687;52.030;7.110;2023-05-02T12:07:40;12.63;;;6.80;;
41653;SDS011;68687;52.030;7.110;2023-05-02T12:10:06;11.50;;;7.13;;
41653;SDS011;68687;52.030;7.110;2023-05-02T12:12:39;14.35;;;6.63;;
41653;SDS011;68687;52.030;7.110;2023-05-02T12:15:08;17.90;;;7.07;;
41653;SDS011;68687;52.030;7.110;2023-05-02T12:17:45;17.45;;;7.18;;
41653;SDS011;68687;52.030;7.110;2023-05-02T12:20:16;20.40;;;7.28;;
41653;SDS011;68687;52.030;7.110;2023-05-02T12:22:45;15.05;;;7.20;;
41653;SDS011;68687;52.030;7.110;2023-05-02T12:25:11;17.73;;;7.07;;
41653;SDS011;68687;52.030;7.110;2023-05-02T12:27:40;10.75;;;6.45;;
41653;SDS011;68687;52.030;7.110;2023-05-02T12:30:05;18.27;;;7.38;;
41653;SDS011;68687;52.030;7.110;2023-05-02T12:32:34;12.60;;;6.95;;
41653;SDS011;68687;52.030;7.110;2023-05-02T12:35:01;14.15;;;7.10;;
41653;SDS011;68687;52.030;7.110;2023-05-02T12:37:30;12.70;;;5.97;;
41653;SDS011;68687;52.030;7.110;2023-05-02T12:39:55;17.13;;;5.93;;
41653;SDS011;68687;52.030;7.110;2023-05-02T12:42:22;14.60;;;6.40;;
41653;SDS011;68687;52.030;7.110;2023-05-02T12:44:49;12.45;;;6.47;;
41653;SDS011;68687;52.030;7.110;2023-05-02T12:47:19;13.40;;;5.60;;
41653;SDS011;68687;52.030;7.110;2023-05-02T12:49:56;12.77;;;6.85;;
41653;SDS011;68687;52.030;7.110;2023-05-02T12:55:24;20.38;;;6.43;;
41653;SDS011;68687;52.030;7.110;2023-05-02T12:58:01;17.60;;;7.25;;
41653;SDS011;68687;52.030;7.110;2023-05-02T13:00:31;14.65;;;6.85;;
41653;SDS011;68687;52.030;7.110;2023-05-02T13:02:57;10.07;;;6.30;;
41653;SDS011;68687;52.030;7.110;2023-05-02T13:05:29;13.93;;;6.43;;
41653;SDS011;68687;52.030;7.110;2023-05-02T13:07:58;14.88;;;6.93;;
41653;SDS011;68687;52.030;7.110;2023-05-02T13:10:23;15.02;;;6.70;;
41653;SDS011;68687;52.030;7.110;2023-05-02T13:12:50;15.38;;;6.47;;
41653;SDS011;68687;52.030;7.110;2023-05-02T13:15:16;16.75;;;6.20;;
41653;SDS011;68687;52.030;7.110;2023-05-02T13:17:42;20.83;;;6.80;;
41653;SDS011;68687;52.030;7.110;2023-05-02T13:20:11;15.07;;;6.85;;
41653;SDS011;68687;52.030;7.110;2023-05-02T13:22:40;13.38;;;6.60;;
41653;SDS011;68687;52.030;7.110;2023-05-02T13:25:05;14.88;;;6.88;;
41653;SDS011;68687;52.030;7.110;2023-05-02T13:27:41;12.82;;;6.57;;
41653;SDS011;68687;52.030;7.110;2023-05-02T13:30:07;14.30;;;6.88;;
41653;SDS011;68687;52.030;7.110;2023-05-02T13:32:36;18.50;;;7.57;;
41653;SDS011;68687;52.030;7.110;2023-05-02T13:35:02;15.70;;;6.53;;
41653;SDS011;68687;52.030;7.110;2023-05-02T13:37:27;12.15;;;7.10;;
41653;SDS011;68687;52.030;7.110;2023-05-02T13:39:53;16.38;;;7.00;;
41653;SDS011;68687;52.030;7.110;2023-05-02T13:42:18;15.32;;;6.55;;
41653;SDS011;68687;52.030;7.110;2023-05-02T13:44:49;16.05;;;6.32;;
41653;SDS011;68687;52.030;7.110;2023-05-02T13:47:15;9.43;;;5.82;;
41653;SDS011;68687;52.030;7.110;2023-05-02T13:49:40;13.43;;;5.97;;
41653;SDS011;68687;52.030;7.110;2023-05-02T13:52:05;7.82;;;5.47;;
41653;SDS011;68687;52.030;7.110;2023-05-02T13:54:31;12.95;;;5.80;;
41653;SDS011;68687;52.030;7.110;2023-05-02T13:56:56;16.98;;;6.38;;
41653;SDS011;68687;52.030;7.110;2023-05-02T13:59:24;9.80;;;5.88;;
41653;SDS011;68687;52.030;7.110;2023-05-02T14:01:53;18.40;;;6.07;;
41653;SDS011;68687;52.030;7.110;2023-05-02T14:04:18;17.33;;;7.95;;
41653;SDS011;68687;52.030;7.110;2023-05-02T14:06:43;14.85;;;6.40;;
41653;SDS011;68687;52.030;7.110;2023-05-02T14:09:09;11.73;;;6.18;;
41653;SDS011;68687;52.030;7.110;2023-05-02T14:11:34;8.35;;;5.53;;
41653;SDS011;68687;52.030;7.110;2023-05-02T14:14:00;12.57;;;6.50;;
41653;SDS011;68687;52.030;7.110;2023-05-02T14:16:25;15.75;;;6.32;;
41653;SDS011;68687;52.030;7.110;2023-05-02T14:18:54;11.70;;;5.85;;
41653;SDS011;68687;52.030;7.110;2023-05-02T14:21:19;15.35;;;6.85;;
41653;SDS011;68687;52.030;7.110;2023-05-02T14:23:45;13.02;;;5.38;;
41653;SDS011;68687;52.030;7.110;2023-05-02T14:26:10;10.73;;;5.32;;
41653;SDS011;68687;52.030;7.110;2023-05-02T14:28:36;12.40;;;6.43;;
41653;SDS011;68687;52.030;7.110;2023-05-02T14:31:02;7.80;;;5.38;;
41653;SDS011;68687;52.030;7.110;2023-05-02T14:33:27;12.90;;;5.55;;
41653;SDS011;68687;52.030;7.110;2023-05-02T14:35:52;14.05;;;5.72;;
41653;SDS011;68687;52.030;7.110;2023-05-02T14:38:18;15.57;;;6.30;;
41653;SDS011;68687;52.030;7.110;2023-05-02T14:40:43;12.38;;;6.13;;
41653;SDS011;68687;52.030;7.110;2023-05-02T14:43:11;14.85;;;6.28;;
41653;SDS011;68687;52.030;7.110;2023-05-02T14:45:37;9.95;;;5.82;;
41653;SDS011;68687;52.030;7.110;2023-05-02T14:48:02;15.10;;;6.30;;
41653;SDS011;68687;52.030;7.110;2023-05-02T14:50:28;10.07;;;4.88;;
41653;SDS011;68687;52.030;7.110;2023-05-02T14:52:56;11.38;;;5.55;;
41653;SDS011;68687;52.030;7.110;2023-05-02T14:55:21;9.43;;;5.72;;
41653;SDS011;68687;52.030;7.110;2023-05-02T14:57:47;12.07;;;5.68;;
41653;SDS011;68687;52.030;7.110;2023-05-02T15:00:12;11.20;;;6.10;;
41653;SDS011;68687;52.030;7.110;2023-05-02T15:02:38;13.48;;;7.05;;
41653;SDS011;68687;52.030;7.110;2023-05-02T15:05:04;9.50;;;5.35;;
41653;SDS011;68687;52.030;7.110;2023-05-02T15:07:31;8.07;;;5.15;;
41653;SDS011;68687;52.030;7.110;2023-05-02T15:09:57;11.63;;;5.80;;
41653;SDS011;68687;52.030;7.110;2023-05-02T15:12:22;11.40;;;5.20;;
41653;SDS011;68687;52.030;7.110;2023-05-02T15:14:48;9.43;;;4.93;;
41653;SDS011;68687;52.030;7.110;2023-05-02T15:17:22;8.88;;;5.22;;
41653;SDS011;68687;52.030;7.110;2023-05-02T15:19:50;14.48;;;5.90;;
41653;SDS011;68687;52.030;7.110;2023-05-02T15:22:16;12.20;;;5.80;;
41653;SDS011;68687;52.030;7.110;2023-05-02T15:24:42;11.73;;;5.72;;
41653;SDS011;68687;52.030;7.110;2023-05-02T15:27:10;12.68;;;5.65;;
41653;SDS011;68687;52.030;7.110;2023-05-02T15:29:35;8.90;;;5.72;;
41653;SDS011;68687;52.030;7.110;2023-05-02T15:32:01;18.70;;;7.20;;
41653;SDS011;68687;52.030;7.110;2023-05-02T15:34:29;9.13;;;5.47;;
41653;SDS011;68687;52.030;7.110;2023-05-02T15:36:58;8.07;;;5.40;;
41653;SDS011;68687;52.030;7.110;2023-05-02T15:39:24;10.63;;;6.25;;